Terminal Aerodrome Forecast
Issued by NWS

Home | Current Version | Previous Version | Text Only | Print | Product List | Glossary Off
Versions: 1 2 3 4 5 6 7 8 9 10 11 12 13 14 15 16 17 18 19 20 21 22 23 24 25 26 27 28 29 30 31

000
FTUS43 KLOT 251900 AAA
TAFDPA
TAF AMD
KDPA 251957Z 2520/2618 03005KT P6SM OVC060
     FM252200 03008KT 1 1/2SM -SN SCT020 OVC030
     FM260000 03009KT 1SM -SN BR SCT010 BKN018 OVC030
      TEMPO 2601/2605 3/4SM -SN BR SCT009 OVC012
     FM260800 03012G16KT 4SM -SN BKN014 OVC020
     FM261600 36011G15KT P6SM BKN030=

USA.gov is the U.S. government's official web portal to all federal, state and local government web resources and services.